sensor_id;sensor_type;location;lat;lon;timestamp;pressure;altitude;pressure_sealevel;temperature;humidity
55590;BME280;41452;42.780;23.116;2023-03-22T00:00:27;94039.16;;;8.72;100.00
55590;BME280;41452;42.780;23.116;2023-03-22T00:02:56;94043.72;;;8.77;100.00
55590;BME280;41452;42.780;23.116;2023-03-22T00:05:21;94040.88;;;8.78;100.00
55590;BME280;41452;42.780;23.116;2023-03-22T00:07:47;94004.06;;;8.61;100.00
55590;BME280;41452;42.780;23.116;2023-03-22T00:10:15;94037.56;;;8.83;100.00
55590;BME280;41452;42.780;23.116;2023-03-22T00:12:41;94035.28;;;8.74;100.00
55590;BME280;41452;42.780;23.116;2023-03-22T00:15:06;93811.66;;;7.34;100.00
55590;BME280;41452;42.780;23.116;2023-03-22T00:17:32;94002.03;;;8.63;100.00
55590;BME280;41452;42.780;23.116;2023-03-22T00:19:57;94000.31;;;8.57;100.00
55590;BME280;41452;42.780;23.116;2023-03-22T00:22:23;94035.19;;;8.81;100.00
55590;BME280;41452;42.780;23.116;2023-03-22T00:24:49;94003.72;;;8.57;100.00
55590;BME280;41452;42.780;23.116;2023-03-22T00:27:15;94028.56;;;8.79;100.00
55590;BME280;41452;42.780;23.116;2023-03-22T00:29:40;94037.22;;;8.67;100.00
55590;BME280;41452;42.780;23.116;2023-03-22T00:32:06;94030.94;;;8.68;100.00
55590;BME280;41452;42.780;23.116;2023-03-22T00:34:32;94023.31;;;8.67;100.00
55590;BME280;41452;42.780;23.116;2023-03-22T00:36:58;94029.38;;;8.67;100.00
55590;BME280;41452;42.780;23.116;2023-03-22T00:39:23;93955.97;;;8.20;100.00
55590;BME280;41452;42.780;23.116;2023-03-22T00:41:51;94027.75;;;8.66;100.00
55590;BME280;41452;42.780;23.116;2023-03-22T00:44:16;94030.72;;;8.58;100.00
55590;BME280;41452;42.780;23.116;2023-03-22T00:46:41;94020.81;;;8.60;100.00
55590;BME280;41452;42.780;23.116;2023-03-22T00:49:07;94020.94;;;8.65;100.00
55590;BME280;41452;42.780;23.116;2023-03-22T00:51:32;94023.31;;;8.67;100.00
55590;BME280;41452;42.780;23.116;2023-03-22T00:53:57;94031.75;;;8.69;100.00
55590;BME280;41452;42.780;23.116;2023-03-22T00:56:23;94000.66;;;8.49;100.00
55590;BME280;41452;42.780;23.116;2023-03-22T00:58:49;94027.97;;;8.65;100.00
55590;BME280;41452;42.780;23.116;2023-03-22T01:01:15;93992.66;;;8.44;100.00
55590;BME280;41452;42.780;23.116;2023-03-22T01:03:42;94018.19;;;8.60;100.00
55590;BME280;41452;42.780;23.116;2023-03-22T01:06:08;94015.03;;;8.58;100.00
55590;BME280;41452;42.780;23.116;2023-03-22T01:08:34;94017.03;;;8.56;100.00
55590;BME280;41452;42.780;23.116;2023-03-22T01:11:03;94019.22;;;8.59;100.00
55590;BME280;41452;42.780;23.116;2023-03-22T01:13:29;94002.59;;;8.53;100.00
55590;BME280;41452;42.780;23.116;2023-03-22T01:15:54;93984.22;;;8.42;100.00
55590;BME280;41452;42.780;23.116;2023-03-22T01:18:20;93988.25;;;8.44;100.00
55590;BME280;41452;42.780;23.116;2023-03-22T01:20:45;93985.06;;;8.42;100.00
55590;BME280;41452;42.780;23.116;2023-03-22T01:23:10;94002.94;;;8.57;100.00
55590;BME280;41452;42.780;23.116;2023-03-22T01:25:36;93989.81;;;8.45;100.00
55590;BME280;41452;42.780;23.116;2023-03-22T01:28:01;94003.72;;;8.57;100.00
55590;BME280;41452;42.780;23.116;2023-03-22T01:30:27;93988.94;;;8.51;100.00
55590;BME280;41452;42.780;23.116;2023-03-22T01:32:53;93990.28;;;8.54;100.00
55590;BME280;41452;42.780;23.116;2023-03-22T01:35:19;93988.38;;;8.49;100.00
55590;BME280;41452;42.780;23.116;2023-03-22T01:37:44;93988.38;;;8.49;100.00
55590;BME280;41452;42.780;23.116;2023-03-22T01:40:12;93973.34;;;8.45;100.00
55590;BME280;41452;42.780;23.116;2023-03-22T01:42:37;93954.97;;;8.33;100.00
55590;BME280;41452;42.780;23.116;2023-03-22T01:48:22;93984.22;;;8.42;100.00
55590;BME280;41452;42.780;23.116;2023-03-22T01:50:27;93983.81;;;8.45;100.00
55590;BME280;41452;42.780;23.116;2023-03-22T01:52:54;93981.75;;;8.47;100.00
55590;BME280;41452;42.780;23.116;2023-03-22T01:55:21;93957.00;;;8.31;100.00
55590;BME280;41452;42.780;23.116;2023-03-22T01:57:50;93952.56;;;8.31;100.00
55590;BME280;41452;42.780;23.116;2023-03-22T02:00:18;93987.88;;;8.41;100.00
55590;BME280;41452;42.780;23.116;2023-03-22T02:02:48;93986.25;;;8.40;100.00
55590;BME280;41452;42.780;23.116;2023-03-22T02:05:15;93986.25;;;8.40;100.00
55590;BME280;41452;42.780;23.116;2023-03-22T02:07:42;93988.03;;;8.46;100.00
55590;BME280;41452;42.780;23.116;2023-03-22T02:10:12;93955.09;;;8.26;100.00
55590;BME280;41452;42.780;23.116;2023-03-22T02:15:37;93984.69;;;8.38;100.00
55590;BME280;41452;42.780;23.116;2023-03-22T02:18:35;93989.78;;;8.33;100.00
55590;BME280;41452;42.780;23.116;2023-03-22T02:32:46;93997.66;;;8.33;100.00
55590;BME280;41452;42.780;23.116;2023-03-22T02:40:57;93994.09;;;8.28;100.00
55590;BME280;41452;42.780;23.116;2023-03-22T02:43:35;94001.94;;;8.28;100.00
55590;BME280;41452;42.780;23.116;2023-03-22T02:46:12;94006.03;;;8.24;100.00
55590;BME280;41452;42.780;23.116;2023-03-22T02:49:38;94003.06;;;8.20;100.00
55590;BME280;41452;42.780;23.116;2023-03-22T02:51:44;93998.50;;;8.15;100.00
55590;BME280;41452;42.780;23.116;2023-03-22T02:54:20;94005.06;;;8.06;100.00
55590;BME280;41452;42.780;23.116;2023-03-22T02:57:34;93984.91;;;7.95;100.00
55590;BME280;41452;42.780;23.116;2023-03-22T03:00:04;93998.91;;;8.00;100.00
55590;BME280;41452;42.780;23.116;2023-03-22T03:02:46;94004.91;;;8.01;100.00
55590;BME280;41452;42.780;23.116;2023-03-22T03:05:14;93985.00;;;7.88;100.00
55590;BME280;41452;42.780;23.116;2023-03-22T03:07:42;94011.69;;;8.09;100.00
55590;BME280;41452;42.780;23.116;2023-03-22T03:10:11;94010.28;;;8.06;100.00
55590;BME280;41452;42.780;23.116;2023-03-22T03:12:37;94015.72;;;8.05;100.00
55590;BME280;41452;42.780;23.116;2023-03-22T03:15:14;93983.28;;;7.82;100.00
55590;BME280;41452;42.780;23.116;2023-03-22T03:17:55;94015.16;;;8.03;100.00
55590;BME280;41452;42.780;23.116;2023-03-22T03:26:15;94020.63;;;8.01;100.00
55590;BME280;41452;42.780;23.116;2023-03-22T03:31:27;94015.97;;;8.03;100.00
55590;BME280;41452;42.780;23.116;2023-03-22T03:36:33;94025.06;;;8.00;100.00
55590;BME280;41452;42.780;23.116;2023-03-22T03:39:04;94016.78;;;8.04;100.00
55590;BME280;41452;42.780;23.116;2023-03-22T03:41:32;94018.13;;;8.06;100.00
55590;BME280;41452;42.780;23.116;2023-03-22T03:44:00;93962.53;;;7.69;100.00
55590;BME280;41452;42.780;23.116;2023-03-22T03:46:26;94024.19;;;8.07;100.00
55590;BME280;41452;42.780;23.116;2023-03-22T03:48:54;94026.56;;;8.08;100.00
55590;BME280;41452;42.780;23.116;2023-03-22T03:51:21;94019.03;;;8.00;100.00
55590;BME280;41452;42.780;23.116;2023-03-22T03:53:46;94031.44;;;8.05;100.00
55590;BME280;41452;42.780;23.116;2023-03-22T03:56:12;94029.28;;;8.02;100.00
55590;BME280;41452;42.780;23.116;2023-03-22T03:58:37;94023.91;;;7.96;100.00
55590;BME280;41452;42.780;23.116;2023-03-22T04:01:03;94026.66;;;8.02;100.00
55590;BME280;41452;42.780;23.116;2023-03-22T04:03:29;93991.63;;;7.72;100.00
55590;BME280;41452;42.780;23.116;2023-03-22T04:05:54;94007.22;;;7.79;100.00
55590;BME280;41452;42.780;23.116;2023-03-22T04:08:20;94024.78;;;7.90;100.00
55590;BME280;41452;42.780;23.116;2023-03-22T04:10:49;94032.75;;;7.95;100.00
55590;BME280;41452;42.780;23.116;2023-03-22T04:13:16;94044.91;;;7.90;100.00
55590;BME280;41452;42.780;23.116;2023-03-22T04:15:41;94029.66;;;7.87;100.00
55590;BME280;41452;42.780;23.116;2023-03-22T04:18:08;93981.84;;;7.49;100.00
55590;BME280;41452;42.780;23.116;2023-03-22T04:20:35;94045.34;;;7.87;100.00
55590;BME280;41452;42.780;23.116;2023-03-22T04:23:03;94046.59;;;7.84;100.00
55590;BME280;41452;42.780;23.116;2023-03-22T04:25:28;94040.22;;;7.80;100.00
55590;BME280;41452;42.780;23.116;2023-03-22T04:27:54;93958.22;;;7.26;100.00
55590;BME280;41452;42.780;23.116;2023-03-22T04:30:20;94039.41;;;7.79;100.00
55590;BME280;41452;42.780;23.116;2023-03-22T04:32:47;94042.16;;;7.85;100.00
55590;BME280;41452;42.780;23.116;2023-03-22T04:35:13;94024.97;;;7.77;100.00
55590;BME280;41452;42.780;23.116;2023-03-22T04:37:40;94042.16;;;7.85;100.00
55590;BME280;41452;42.780;23.116;2023-03-22T04:40:07;94043.75;;;7.86;100.00
55590;BME280;41452;42.780;23.116;2023-03-22T04:42:34;94046.16;;;7.87;100.00
55590;BME280;41452;42.780;23.116;2023-03-22T04:44:59;94036.69;;;7.86;100.00
55590;BME280;41452;42.780;23.116;2023-03-22T04:47:25;94038.44;;;7.92;100.00
55590;BME280;41452;42.780;23.116;2023-03-22T04:49:50;94010.84;;;7.78;100.00
55590;BME280;41452;42.780;23.116;2023-03-22T04:52:16;94035.94;;;7.97;100.00
55590;BME280;41452;42.780;23.116;2023-03-22T04:54:41;94040.38;;;7.97;100.00
55590;BME280;41452;42.780;23.116;2023-03-22T04:57:07;94045.41;;;7.98;100.00
55590;BME280;41452;42.780;23.116;2023-03-22T04:59:32;94014.66;;;7.82;100.00
55590;BME280;41452;42.780;23.116;2023-03-22T05:01:58;94051.78;;;8.03;100.00
55590;BME280;41452;42.780;23.116;2023-03-22T05:04:23;94052.34;;;8.05;100.00
55590;BME280;41452;42.780;23.116;2023-03-22T05:06:49;94053.59;;;8.02;100.00
55590;BME280;41452;42.780;23.116;2023-03-22T05:09:15;94048.50;;;8.07;100.00
55590;BME280;41452;42.780;23.116;2023-03-22T05:11:41;94053.97;;;8.06;100.00
55590;BME280;41452;42.780;23.116;2023-03-22T05:14:07;94068.41;;;8.08;100.00
55590;BME280;41452;42.780;23.116;2023-03-22T05:16:33;94049.63;;;7.99;100.00
55590;BME280;41452;42.780;23.116;2023-03-22T05:18:59;94051.69;;;8.09;100.00
55590;BME280;41452;42.780;23.116;2023-03-22T05:21:28;94034.50;;;8.02;100.00
55590;BME280;41452;42.780;23.116;2023-03-22T05:23:57;94061.50;;;8.14;100.00
55590;BME280;41452;42.780;23.116;2023-03-22T05:26:24;94057.94;;;8.08;100.00
55590;BME280;41452;42.780;23.116;2023-03-22T05:28:53;94068.78;;;8.12;100.00
55590;BME280;41452;42.780;23.116;2023-03-22T05:31:20;94064.91;;;8.14;100.00
55590;BME280;41452;42.780;23.116;2023-03-22T05:33:50;94061.66;;;8.19;100.00
55590;BME280;41452;42.780;23.116;2023-03-22T05:36:18;94067.22;;;8.23;100.00
55590;BME280;41452;42.780;23.116;2023-03-22T05:38:44;94072.22;;;8.24;100.00
55590;BME280;41452;42.780;23.116;2023-03-22T05:41:11;94071.78;;;8.27;100.00
55590;BME280;41452;42.780;23.116;2023-03-22T05:43:37;94074.75;;;8.31;100.00
55590;BME280;41452;42.780;23.116;2023-03-22T05:46:07;94085.34;;;8.36;100.00
55590;BME280;41452;42.780;23.116;2023-03-22T05:48:32;94083.78;;;8.35;100.00
55590;BME280;41452;42.780;23.116;2023-03-22T05:50:58;94083.16;;;8.33;100.00
55590;BME280;41452;42.780;23.116;2023-03-22T05:53:23;94078.41;;;8.30;100.00
55590;BME280;41452;42.780;23.116;2023-03-22T05:55:49;94090.66;;;8.29;100.00
55590;BME280;41452;42.780;23.116;2023-03-22T05:58:14;94097.94;;;8.27;100.00
55590;BME280;41452;42.780;23.116;2023-03-22T06:00:44;94101.13;;;8.29;100.00
55590;BME280;41452;42.780;23.116;2023-03-22T06:03:09;94083.22;;;8.14;100.00
55590;BME280;41452;42.780;23.116;2023-03-22T06:05:35;94103.53;;;8.31;100.00
55590;BME280;41452;42.780;23.116;2023-03-22T06:08:02;94103.59;;;8.24;100.00
55590;BME280;41452;42.780;23.116;2023-03-22T06:10:27;94105.22;;;8.25;100.00
55590;BME280;41452;42.780;23.116;2023-03-22T06:12:53;94107.25;;;8.23;100.00
55590;BME280;41452;42.780;23.116;2023-03-22T06:15:19;94110.66;;;8.24;100.00
55590;BME280;41452;42.780;23.116;2023-03-22T06:17:45;94103.38;;;8.26;100.00
55590;BME280;41452;42.780;23.116;2023-03-22T06:20:12;94111.59;;;8.29;100.00
55590;BME280;41452;42.780;23.116;2023-03-22T06:22:38;94114.78;;;8.31;100.00
55590;BME280;41452;42.780;23.116;2023-03-22T06:25:09;94086.94;;;8.07;100.00
55590;BME280;41452;42.780;23.116;2023-03-22T06:27:34;94118.72;;;8.22;100.00
55590;BME280;41452;42.780;23.116;2023-03-22T06:30:00;94119.41;;;8.17;100.00
55590;BME280;41452;42.780;23.116;2023-03-22T06:32:25;94124.06;;;8.15;100.00
55590;BME280;41452;42.780;23.116;2023-03-22T06:34:52;94120.94;;;8.07;100.00
55590;BME280;41452;42.780;23.116;2023-03-22T06:37:18;94127.75;;;8.08;100.00
55590;BME280;41452;42.780;23.116;2023-03-22T06:39:43;94129.22;;;8.04;100.00
55590;BME280;41452;42.780;23.116;2023-03-22T06:42:08;94129.81;;;8.06;100.00
55590;BME280;41452;42.780;23.116;2023-03-22T06:44:35;94133.34;;;8.11;100.00
55590;BME280;41452;42.780;23.116;2023-03-22T06:47:00;94071.22;;;7.76;100.00
55590;BME280;41452;42.780;23.116;2023-03-22T06:49:26;94131.16;;;8.08;100.00
55590;BME280;41452;42.780;23.116;2023-03-22T06:51:52;94095.91;;;7.80;100.00
55590;BME280;41452;42.780;23.116;2023-03-22T06:54:17;94125.47;;;7.99;100.00
55590;BME280;41452;42.780;23.116;2023-03-22T06:56:43;94138.38;;;8.13;100.00
55590;BME280;41452;42.780;23.116;2023-03-22T06:59:08;94116.91;;;7.92;100.00
55590;BME280;41452;42.780;23.116;2023-03-22T07:01:34;94144.03;;;8.10;100.00
55590;BME280;41452;42.780;23.116;2023-03-22T07:03:59;94139.97;;;7.95;100.00
55590;BME280;41452;42.780;23.116;2023-03-22T07:06:25;94150.94;;;8.04;100.00
55590;BME280;41452;42.780;23.116;2023-03-22T07:08:50;94158.88;;;8.16;100.00
55590;BME280;41452;42.780;23.116;2023-03-22T07:11:16;94152.31;;;8.25;100.00
55590;BME280;41452;42.780;23.116;2023-03-22T07:13:41;94147.66;;;8.27;100.00
55590;BME280;41452;42.780;23.116;2023-03-22T07:16:07;94156.66;;;8.31;100.00
55590;BME280;41452;42.780;23.116;2023-03-22T07:18:32;94146.19;;;8.31;100.00
55590;BME280;41452;42.780;23.116;2023-03-22T07:20:58;94154.28;;;8.30;100.00
55590;BME280;41452;42.780;23.116;2023-03-22T07:23:23;94139.22;;;8.25;100.00
55590;BME280;41452;42.780;23.116;2023-03-22T07:25:49;94159.72;;;8.28;100.00
55590;BME280;41452;42.780;23.116;2023-03-22T07:28:15;94161.97;;;8.25;100.00
55590;BME280;41452;42.780;23.116;2023-03-22T07:30:40;94145.94;;;8.21;100.00
55590;BME280;41452;42.780;23.116;2023-03-22T07:33:07;94163.06;;;8.35;100.00
55590;BME280;41452;42.780;23.116;2023-03-22T07:35:33;94164.88;;;8.35;100.00
55590;BME280;41452;42.780;23.116;2023-03-22T07:38:00;94163.63;;;8.37;100.00
55590;BME280;41452;42.780;23.116;2023-03-22T07:40:26;94176.44;;;8.46;100.00
55590;BME280;41452;42.780;23.116;2023-03-22T07:42:52;94176.72;;;8.37;100.00
55590;BME280;41452;42.780;23.116;2023-03-22T07:45:19;94181.50;;;8.41;100.00
55590;BME280;41452;42.780;23.116;2023-03-22T07:47:45;94187.19;;;8.37;100.00
55590;BME280;41452;42.780;23.116;2023-03-22T07:50:12;94173.75;;;8.34;100.00
55590;BME280;41452;42.780;23.116;2023-03-22T07:52:40;94184.13;;;8.41;100.00
55590;BME280;41452;42.780;23.116;2023-03-22T07:55:07;94184.00;;;8.35;100.00
55590;BME280;41452;42.780;23.116;2023-03-22T07:57:34;94187.63;;;8.34;100.00
55590;BME280;41452;42.780;23.116;2023-03-22T08:00:00;94141.91;;;8.18;100.00
55590;BME280;41452;42.780;23.116;2023-03-22T08:02:25;94173.22;;;8.44;100.00
55590;BME280;41452;42.780;23.116;2023-03-22T08:04:50;94195.28;;;8.54;100.00
55590;BME280;41452;42.780;23.116;2023-03-22T08:07:17;94179.44;;;8.49;100.00
55590;BME280;41452;42.780;23.116;2023-03-22T08:09:43;94195.63;;;8.58;100.00
55590;BME280;41452;42.780;23.116;2023-03-22T08:12:10;94180.94;;;8.57;100.00
55590;BME280;41452;42.780;23.116;2023-03-22T08:14:35;94185.63;;;8.67;100.00
55590;BME280;41452;42.780;23.116;2023-03-22T08:17:02;94202.03;;;8.74;100.00
55590;BME280;41452;42.780;23.116;2023-03-22T08:19:27;94192.03;;;8.71;100.00
55590;BME280;41452;42.780;23.116;2023-03-22T08:21:53;94199.97;;;8.64;100.00
55590;BME280;41452;42.780;23.116;2023-03-22T08:24:18;94203.28;;;8.71;100.00
55590;BME280;41452;42.780;23.116;2023-03-22T08:26:43;94180.13;;;8.56;100.00
55590;BME280;41452;42.780;23.116;2023-03-22T08:29:09;94202.31;;;8.54;100.00
55590;BME280;41452;42.780;23.116;2023-03-22T08:31:35;94209.44;;;8.65;100.00
55590;BME280;41452;42.780;23.116;2023-03-22T08:34:00;94204.91;;;8.72;100.00
55590;BME280;41452;42.780;23.116;2023-03-22T08:36:26;94202.03;;;8.74;100.00
55590;BME280;41452;42.780;23.116;2023-03-22T08:38:51;94171.31;;;8.51;100.00
55590;BME280;41452;42.780;23.116;2023-03-22T08:41:17;94168.50;;;8.52;100.00
55590;BME280;41452;42.780;23.116;2023-03-22T08:43:42;94210.00;;;8.67;100.00
55590;BME280;41452;42.780;23.116;2023-03-22T08:46:08;94208.53;;;8.71;100.00
55590;BME280;41452;42.780;23.116;2023-03-22T08:48:34;94196.69;;;8.69;100.00
55590;BME280;41452;42.780;23.116;2023-03-22T08:51:02;94200.09;;;8.69;100.00
55590;BME280;41452;42.780;23.116;2023-03-22T08:53:29;94215.94;;;8.74;100.00
55590;BME280;41452;42.780;23.116;2023-03-22T08:55:55;94200.75;;;8.65;100.00
55590;BME280;41452;42.780;23.116;2023-03-22T08:58:22;94214.91;;;8.75;100.00
55590;BME280;41452;42.780;23.116;2023-03-22T09:00:48;94207.19;;;8.81;100.00
55590;BME280;41452;42.780;23.116;2023-03-22T09:03:13;94210.63;;;8.81;100.00
55590;BME280;41452;42.780;23.116;2023-03-22T09:05:40;94154.47;;;8.47;100.00
55590;BME280;41452;42.780;23.116;2023-03-22T09:08:05;94192.81;;;8.71;100.00
55590;BME280;41452;42.780;23.116;2023-03-22T09:10:31;94163.41;;;8.57;100.00
55590;BME280;41452;42.780;23.116;2023-03-22T09:12:57;94213.13;;;8.88;100.00
55590;BME280;41452;42.780;23.116;2023-03-22T09:15:22;94211.91;;;8.90;100.00
55590;BME280;41452;42.780;23.116;2023-03-22T09:17:48;94209.06;;;8.92;100.00
55590;BME280;41452;42.780;23.116;2023-03-22T09:20:14;94215.47;;;8.96;100.00
55590;BME280;41452;42.780;23.116;2023-03-22T09:22:39;94214.41;;;8.97;100.00
55590;BME280;41452;42.780;23.116;2023-03-22T09:25:05;94217.84;;;8.98;100.00
55590;BME280;41452;42.780;23.116;2023-03-22T09:27:31;94215.81;;;9.00;100.00
55590;BME280;41452;42.780;23.116;2023-03-22T09:29:57;94212.97;;;9.01;100.00
55590;BME280;41452;42.780;23.116;2023-03-22T09:32:22;94212.97;;;9.01;100.00
55590;BME280;41452;42.780;23.116;2023-03-22T09:34:48;94213.41;;;8.98;100.00
55590;BME280;41452;42.780;23.116;2023-03-22T09:37:13;94205.41;;;8.93;100.00
55590;BME280;41452;42.780;23.116;2023-03-22T09:39:39;94218.66;;;8.98;100.00
55590;BME280;41452;42.780;23.116;2023-03-22T09:42:09;94209.56;;;9.01;100.00
55590;BME280;41452;42.780;23.116;2023-03-22T09:44:42;94204.97;;;8.96;100.00
55590;BME280;41452;42.780;23.116;2023-03-22T09:47:18;94211.13;;;9.02;100.00
55590;BME280;41452;42.780;23.116;2023-03-22T09:49:47;94182.19;;;8.85;100.00
55590;BME280;41452;42.780;23.116;2023-03-22T09:52:15;94208.44;;;9.08;100.00
55590;BME280;41452;42.780;23.116;2023-03-22T09:54:45;94210.84;;;9.10;100.00
55590;BME280;41452;42.780;23.116;2023-03-22T09:57:23;94170.09;;;8.84;100.00
55590;BME280;41452;42.780;23.116;2023-03-22T09:59:57;94218.69;;;9.10;100.00
55590;BME280;41452;42.780;23.116;2023-03-22T10:02:44;94215.38;;;9.14;100.00
55590;BME280;41452;42.780;23.116;2023-03-22T10:10:49;94213.13;;;9.18;100.00
55590;BME280;41452;42.780;23.116;2023-03-22T10:15:49;94213.81;;;9.25;100.00
55590;BME280;41452;42.780;23.116;2023-03-22T10:18:31;94219.41;;;9.29;100.00
55590;BME280;41452;42.780;23.116;2023-03-22T10:21:04;94217.38;;;9.31;100.00
55590;BME280;41452;42.780;23.116;2023-03-22T10:23:46;94218.25;;;9.25;100.00
55590;BME280;41452;42.780;23.116;2023-03-22T10:28:50;94142.50;;;8.69;100.00
55590;BME280;41452;42.780;23.116;2023-03-22T10:31:19;94211.88;;;9.21;100.00
55590;BME280;41452;42.780;23.116;2023-03-22T10:36:20;94217.03;;;9.27;100.00
55590;BME280;41452;42.780;23.116;2023-03-22T10:38:49;94219.75;;;9.32;100.00
55590;BME280;41452;42.780;23.116;2023-03-22T10:41:17;94170.16;;;9.07;100.00
55590;BME280;41452;42.780;23.116;2023-03-22T10:43:48;94199.47;;;9.28;100.00
55590;BME280;41452;42.780;23.116;2023-03-22T10:46:18;94203.22;;;9.32;100.00
55590;BME280;41452;42.780;23.116;2023-03-22T10:48:47;94213.84;;;9.37;100.00
55590;BME280;41452;42.780;23.116;2023-03-22T10:51:42;94216.47;;;9.37;100.00
55590;BME280;41452;42.780;23.116;2023-03-22T10:54:14;94218.50;;;9.35;100.00
55590;BME280;41452;42.780;23.116;2023-03-22T10:56:40;94215.69;;;9.37;100.00
55590;BME280;41452;42.780;23.116;2023-03-22T10:59:06;94226.25;;;9.30;100.00
55590;BME280;41452;42.780;23.116;2023-03-22T11:01:34;94222.09;;;9.10;100.00
55590;BME280;41452;42.780;23.116;2023-03-22T11:04:15;94226.34;;;9.23;100.00
55590;BME280;41452;42.780;23.116;2023-03-22T11:06:51;94171.72;;;8.85;100.00
55590;BME280;41452;42.780;23.116;2023-03-22T11:09:19;94214.38;;;9.16;100.00
55590;BME280;41452;42.780;23.116;2023-03-22T11:14:23;94207.16;;;9.11;100.00
55590;BME280;41452;42.780;23.116;2023-03-22T11:16:54;94172.50;;;8.97;100.00
55590;BME280;41452;42.780;23.116;2023-03-22T11:19:41;94217.78;;;9.04;100.00
55590;BME280;41452;42.780;23.116;2023-03-22T11:22:27;94204.78;;;9.09;100.00
55590;BME280;41452;42.780;23.116;2023-03-22T11:24:57;94207.75;;;9.13;100.00
55590;BME280;41452;42.780;23.116;2023-03-22T11:27:28;94203.63;;;9.05;100.00
55590;BME280;41452;42.780;23.116;2023-03-22T11:30:20;94207.47;;;8.91;100.00
55590;BME280;41452;42.780;23.116;2023-03-22T11:32:47;94210.38;;;8.83;100.00
55590;BME280;41452;42.780;23.116;2023-03-22T11:35:20;94210.56;;;8.69;100.00
55590;BME280;41452;42.780;23.116;2023-03-22T11:37:50;94208.94;;;8.56;100.00
55590;BME280;41452;42.780;23.116;2023-03-22T11:42:44;94175.09;;;8.36;100.00
55590;BME280;41452;42.780;23.116;2023-03-22T11:45:40;94191.41;;;8.57;100.00
55590;BME280;41452;42.780;23.116;2023-03-22T11:48:24;94188.34;;;8.60;100.00
55590;BME280;41452;42.780;23.116;2023-03-22T11:50:52;94195.31;;;8.66;100.00
55590;BME280;41452;42.780;23.116;2023-03-22T11:53:22;94193.75;;;8.77;100.00
55590;BME280;41452;42.780;23.116;2023-03-22T11:55:51;94192.66;;;8.85;100.00
55590;BME280;41452;42.780;23.116;2023-03-22T11:58:29;94199.03;;;8.89;100.00
55590;BME280;41452;42.780;23.116;2023-03-22T12:01:14;94198.25;;;8.88;100.00
55590;BME280;41452;42.780;23.116;2023-03-22T12:03:45;94182.28;;;8.90;100.00
55590;BME280;41452;42.780;23.116;2023-03-22T12:06:19;94192.88;;;8.95;100.00
55590;BME280;41452;42.780;23.116;2023-03-22T12:09:08;94195.97;;;8.92;100.00
55590;BME280;41452;42.780;23.116;2023-03-22T12:11:45;94199.59;;;8.91;100.00
55590;BME280;41452;42.780;23.116;2023-03-22T12:14:22;94208.25;;;8.91;100.00
55590;BME280;41452;42.780;23.116;2023-03-22T12:17:12;94206.47;;;8.92;100.00
55590;BME280;41452;42.780;23.116;2023-03-22T12:22:28;94195.16;;;8.91;100.00
55590;BME280;41452;42.780;23.116;2023-03-22T12:24:54;94130.63;;;8.55;100.00
55590;BME280;41452;42.780;23.116;2023-03-22T12:27:24;94193.94;;;9.06;100.00
55590;BME280;41452;42.780;23.116;2023-03-22T12:32:25;94189.88;;;9.10;100.00
55590;BME280;41452;42.780;23.116;2023-03-22T12:34:53;94146.09;;;8.99;100.00
55590;BME280;41452;42.780;23.116;2023-03-22T12:37:24;94178.59;;;9.21;100.00
55590;BME280;41452;42.780;23.116;2023-03-22T12:39:58;94189.09;;;9.21;100.00
55590;BME280;41452;42.780;23.116;2023-03-22T12:42:41;94176.09;;;9.14;100.00
55590;BME280;41452;42.780;23.116;2023-03-22T12:45:15;94179.88;;;9.19;100.00
55590;BME280;41452;42.780;23.116;2023-03-22T12:47:46;94177.47;;;9.17;100.00
55590;BME280;41452;42.780;23.116;2023-03-22T12:50:20;94178.84;;;9.20;100.00
55590;BME280;41452;42.780;23.116;2023-03-22T12:52:51;94136.63;;;8.86;100.00
55590;BME280;41452;42.780;23.116;2023-03-22T12:55:28;94184.75;;;9.27;100.00
55590;BME280;41452;42.780;23.116;2023-03-22T12:57:56;94142.25;;;9.13;100.00
55590;BME280;41452;42.780;23.116;2023-03-22T13:00:41;94183.88;;;9.45;100.00
55590;BME280;41452;42.780;23.116;2023-03-22T13:05:39;93981.69;;;8.23;100.00
55590;BME280;41452;42.780;23.116;2023-03-22T13:08:04;94174.66;;;9.54;100.00
55590;BME280;41452;42.780;23.116;2023-03-22T13:15:39;94176.72;;;9.64;100.00
55590;BME280;41452;42.780;23.116;2023-03-22T13:18:27;94110.72;;;9.20;100.00
55590;BME280;41452;42.780;23.116;2023-03-22T13:26:49;94166.47;;;9.50;100.00
55590;BME280;41452;42.780;23.116;2023-03-22T13:32:03;94168.16;;;9.57;100.00
55590;BME280;41452;42.780;23.116;2023-03-22T13:34:47;94158.34;;;9.64;100.00
55590;BME280;41452;42.780;23.116;2023-03-22T13:39:56;94167.94;;;9.70;100.00
55590;BME280;41452;42.780;23.116;2023-03-22T13:42:32;94168.28;;;9.74;100.00
55590;BME280;41452;42.780;23.116;2023-03-22T13:44:59;94163.84;;;9.74;100.00
55590;BME280;41452;42.780;23.116;2023-03-22T13:47:32;94165.75;;;9.79;100.00
55590;BME280;41452;42.780;23.116;2023-03-22T13:50:02;94162.00;;;9.86;100.00
55590;BME280;41452;42.780;23.116;2023-03-22T13:52:36;94169.03;;;9.98;100.00
55590;BME280;41452;42.780;23.116;2023-03-22T13:55:03;94156.63;;;9.93;100.00
55590;BME280;41452;42.780;23.116;2023-03-22T13:57:57;94152.53;;;9.97;100.00
55590;BME280;41452;42.780;23.116;2023-03-22T14:03:00;94165.69;;;10.14;100.00
55590;BME280;41452;42.780;23.116;2023-03-22T14:05:29;94166.63;;;10.20;100.00
55590;BME280;41452;42.780;23.116;2023-03-22T14:07:57;94137.91;;;10.01;100.00
55590;BME280;41452;42.780;23.116;2023-03-22T14:10:38;94169.25;;;10.20;100.00
55590;BME280;41452;42.780;23.116;2023-03-22T14:16:20;93871.50;;;8.43;100.00
55590;BME280;41452;42.780;23.116;2023-03-22T14:18:53;94165.59;;;10.33;100.00
55590;BME280;41452;42.780;23.116;2023-03-22T14:21:30;94093.91;;;9.92;100.00